createdAt,value
2023-01-25T00:03:38.541Z,1.50
2023-01-25T00:07:41.337Z,1.40
2023-01-25T00:11:45.600Z,1.60
2023-01-25T00:15:48.458Z,1.40
2023-01-25T00:19:52.643Z,1.40
2023-01-25T00:23:55.935Z,1.30
2023-01-25T00:27:58.810Z,1.30
2023-01-25T00:32:28.660Z,1.30
2023-01-25T00:36:41.751Z,1.30
2023-01-25T00:40:45.957Z,1.20
2023-01-25T00:44:49.399Z,1.20
2023-01-25T00:48:54.725Z,1.20
2023-01-25T00:52:58.964Z,1.30
2023-01-25T00:57:01.917Z,1.30
2023-01-25T01:01:05.810Z,1.30
2023-01-25T01:05:09.713Z,1.50
2023-01-25T01:09:16.608Z,1.50
2023-01-25T01:13:19.434Z,1.60
2023-01-25T01:17:23.733Z,1.80
2023-01-25T01:21:26.748Z,1.80
2023-01-25T01:25:30.917Z,1.50
2023-01-25T01:29:33.759Z,1.50
2023-01-25T01:33:36.735Z,1.40
2023-01-25T01:37:43.207Z,1.40
2023-01-25T01:41:47.394Z,1.40
2023-01-25T01:45:56.468Z,1.30
2023-01-25T01:50:18.085Z,1.30
2023-01-25T01:54:25.897Z,1.40
2023-01-25T01:58:33.046Z,1.40
2023-01-25T02:02:36.477Z,1.40
2023-01-25T02:06:47.093Z,1.30
2023-01-25T02:10:52.258Z,1.40
2023-01-25T02:14:57.216Z,1.30
2023-01-25T02:19:02.643Z,1.30
2023-01-25T02:23:17.625Z,1.20
2023-01-25T02:27:22.499Z,1.40
2023-01-25T02:31:25.777Z,1.30
2023-01-25T02:35:39.819Z,1.30
2023-01-25T02:39:43.519Z,1.30
2023-01-25T02:43:47.746Z,1.30
2023-01-25T02:47:50.630Z,1.30
2023-01-25T02:51:57.383Z,1.20
2023-01-25T02:56:00.866Z,1.30
2023-01-25T03:00:07.251Z,1.50
2023-01-25T03:04:10.824Z,1.50
2023-01-25T03:08:13.735Z,1.30
2023-01-25T03:12:17.316Z,1.00
2023-01-25T03:16:23.313Z,1.20
2023-01-25T03:20:26.376Z,1.30
2023-01-25T03:24:29.509Z,1.20
2023-01-25T03:28:32.535Z,1.30
2023-01-25T03:32:37.798Z,1.30
2023-01-25T03:36:44.425Z,1.30
2023-01-25T03:40:48.218Z,1.20
2023-01-25T03:44:51.120Z,1.20
2023-01-25T03:48:55.840Z,1.10
2023-01-25T03:53:27.559Z,1.20
2023-01-25T03:57:30.896Z,1.20
2023-01-25T04:01:38.372Z,1.20
2023-01-25T04:05:43.077Z,1.20
2023-01-25T04:09:46.292Z,1.20
2023-01-25T04:13:49.571Z,1.10
2023-01-25T04:17:53.978Z,1.00
2023-01-25T04:22:00.781Z,1.10
2023-01-25T04:26:12.499Z,1.20
2023-01-25T04:30:16.547Z,1.10
2023-01-25T04:34:21.122Z,1.00
2023-01-25T04:38:25.949Z,1.00
2023-01-25T04:42:29.834Z,1.00
2023-01-25T04:46:33.503Z,1.20
2023-01-25T04:50:38.063Z,1.10
2023-01-25T04:54:42.475Z,0.90
2023-01-25T04:58:47.643Z,0.80
2023-01-25T05:02:50.599Z,0.80
2023-01-25T05:06:53.514Z,0.90
2023-01-25T05:10:57.963Z,1.00
2023-01-25T05:15:23.334Z,1.00
2023-01-25T05:19:26.238Z,1.10
2023-01-25T05:23:34.125Z,1.10
2023-01-25T05:27:38.632Z,0.90
2023-01-25T05:32:11.769Z,0.90
2023-01-25T05:36:15.435Z,0.90
2023-01-25T05:40:19.138Z,1.00
2023-01-25T05:44:23.918Z,1.00
2023-01-25T05:48:27.691Z,0.90
2023-01-25T05:52:30.544Z,1.00
2023-01-25T05:56:33.719Z,0.80
2023-01-25T06:00:38.305Z,1.00
2023-01-25T06:04:41.442Z,1.00
2023-01-25T06:08:46.572Z,0.90
2023-01-25T06:12:49.520Z,1.00
2023-01-25T06:16:54.537Z,0.90
2023-01-25T06:21:08.126Z,0.90
2023-01-25T06:25:13.821Z,1.00
2023-01-25T06:29:16.663Z,0.90
2023-01-25T06:33:20.797Z,1.00
2023-01-25T06:37:25.290Z,0.90
2023-01-25T06:41:28.080Z,0.90
2023-01-25T06:45:30.892Z,1.00
2023-01-25T06:49:35.063Z,1.20
2023-01-25T06:53:40.077Z,1.10
2023-01-25T06:57:42.860Z,1.00
2023-01-25T07:01:45.726Z,1.00
2023-01-25T07:05:51.077Z,1.10
2023-01-25T07:09:53.891Z,1.30
2023-01-25T07:13:56.638Z,1.10
2023-01-25T07:18:08.306Z,1.20
2023-01-25T07:22:19.061Z,1.00
2023-01-25T07:26:24.036Z,1.00
2023-01-25T07:30:26.888Z,0.90
2023-01-25T07:34:29.961Z,0.80
2023-01-25T07:38:35.057Z,0.80
2023-01-25T07:42:38.469Z,0.70
2023-01-25T07:46:48.991Z,0.60
2023-01-25T07:51:11.612Z,0.70
2023-01-25T07:55:16.180Z,0.70
2023-01-25T07:59:19.021Z,0.90
2023-01-25T08:03:22.224Z,0.80
2023-01-25T08:07:25.064Z,0.80
2023-01-25T08:11:31.585Z,0.90
2023-01-25T08:15:35.233Z,0.90
2023-01-25T08:19:38.147Z,1.00
2023-01-25T08:23:41.034Z,1.00
2023-01-25T08:27:45.482Z,0.90
2023-01-25T08:31:48.460Z,0.90
2023-01-25T08:35:56.069Z,1.10
2023-01-25T08:39:59.828Z,1.10
2023-01-25T08:44:04.310Z,1.00
2023-01-25T08:48:07.163Z,1.20
2023-01-25T08:52:09.984Z,1.20
2023-01-25T08:56:14.672Z,1.30
2023-01-25T09:00:20.343Z,1.60
2023-01-25T09:04:28.246Z,1.50
2023-01-25T09:08:31.115Z,1.20
2023-01-25T09:12:33.947Z,1.10
2023-01-25T09:16:38.366Z,1.00
2023-01-25T09:20:41.680Z,1.00
2023-01-25T09:24:44.981Z,1.20
2023-01-25T09:28:49.425Z,1.10
2023-01-25T09:32:54.109Z,1.50
2023-01-25T09:36:57.059Z,1.30
2023-01-25T09:41:13.726Z,0.90
2023-01-25T09:45:27.005Z,1.10
2023-01-25T09:49:51.886Z,1.20
2023-01-25T09:53:56.539Z,1.10
2023-01-25T09:58:02.684Z,1.10
2023-01-25T10:02:11.240Z,0.90
2023-01-25T10:06:17.672Z,1.10
2023-01-25T10:10:24.268Z,1.20
2023-01-25T10:14:27.815Z,1.20
2023-01-25T10:18:36.399Z,1.20
2023-01-25T10:22:47.751Z,1.40
2023-01-25T10:26:56.668Z,1.40
2023-01-25T10:31:03.249Z,1.40
2023-01-25T10:35:29.249Z,1.50
2023-01-25T10:39:42.718Z,1.70
2023-01-25T10:43:45.497Z,1.70
2023-01-25T10:47:50.996Z,1.60
2023-01-25T10:51:54.200Z,1.70
2023-01-25T10:56:05.667Z,1.70
2023-01-25T11:00:24.780Z,1.50
2023-01-25T11:04:35.157Z,2.00
2023-01-25T11:08:41.442Z,2.00
2023-01-25T11:12:45.748Z,1.80
2023-01-25T11:16:49.345Z,1.70
2023-01-25T11:21:06.822Z,1.30
2023-01-25T11:25:30.873Z,1.70
2023-01-25T11:29:35.053Z,2.10
2023-01-25T11:33:37.915Z,2.50
2023-01-25T11:37:55.224Z,2.30
2023-01-25T11:42:07.802Z,2.50
2023-01-25T11:46:46.303Z,2.60
2023-01-25T11:50:56.793Z,2.60
2023-01-25T11:55:11.165Z,1.90
2023-01-25T11:59:30.771Z,1.70
2023-01-25T12:04:08.235Z,1.60
2023-01-25T12:08:26.187Z,1.60
2023-01-25T12:12:40.625Z,1.40
2023-01-25T12:17:06.804Z,1.80
2023-01-25T12:21:31.372Z,1.60
2023-01-25T12:25:43.681Z,1.80
2023-01-25T12:29:50.865Z,2.10
2023-01-25T12:33:58.722Z,2.30
2023-01-25T12:38:05.599Z,2.50
2023-01-25T12:42:17.032Z,2.30
2023-01-25T12:46:27.228Z,1.80
2023-01-25T12:50:35.889Z,2.10
2023-01-25T12:54:43.089Z,2.10
2023-01-25T12:58:51.355Z,2.10
2023-01-25T13:03:13.245Z,2.20
2023-01-25T13:07:23.507Z,2.20
2023-01-25T13:11:34.495Z,2.30
2023-01-25T13:15:39.461Z,2.10
2023-01-25T13:19:43.655Z,2.30
2023-01-25T13:23:47.865Z,1.90
2023-01-25T13:27:52.680Z,2.00
2023-01-25T13:31:58.836Z,1.90
2023-01-25T13:36:35.404Z,2.10
2023-01-25T13:40:39.335Z,1.80
2023-01-25T13:44:46.925Z,1.70
2023-01-25T13:49:04.805Z,1.50
2023-01-25T13:53:19.841Z,1.60
2023-01-25T13:57:24.340Z,1.80
2023-01-25T14:01:30.355Z,1.60
2023-01-25T14:05:33.169Z,1.40
2023-01-25T14:09:36.058Z,1.80
2023-01-25T14:13:38.879Z,2.00
2023-01-25T14:17:43.153Z,2.30
2023-01-25T14:21:45.949Z,2.30
2023-01-25T14:25:48.863Z,2.50
2023-01-25T14:29:51.852Z,2.50
2023-01-25T14:33:58.782Z,2.40
2023-01-25T14:38:02.063Z,2.60
2023-01-25T14:42:05.401Z,2.40
2023-01-25T14:46:23.406Z,2.50
2023-01-25T14:50:35.465Z,2.30
2023-01-25T14:54:46.777Z,2.30
2023-01-25T14:58:58.892Z,1.80
2023-01-25T15:03:06.737Z,1.80
2023-01-25T15:07:34.491Z,1.70
2023-01-25T15:11:45.143Z,1.90
2023-01-25T15:15:53.169Z,1.90
2023-01-25T15:19:56.017Z,1.80
2023-01-25T15:24:04.690Z,1.90
2023-01-25T15:28:07.696Z,1.70
2023-01-25T15:32:18.924Z,1.80
2023-01-25T15:36:21.799Z,1.80
2023-01-25T15:40:25.979Z,1.90
2023-01-25T15:44:28.853Z,1.70
2023-01-25T15:48:34.591Z,1.50
2023-01-25T15:52:37.384Z,1.60
2023-01-25T15:56:43.749Z,1.80
2023-01-25T16:00:46.632Z,1.80
2023-01-25T16:04:49.548Z,1.60
2023-01-25T16:08:52.591Z,1.50
2023-01-25T16:12:57.011Z,1.60
2023-01-25T16:17:02.583Z,1.60
2023-01-25T16:21:05.840Z,1.60
2023-01-25T16:25:09.385Z,1.60
2023-01-25T16:29:13.829Z,1.50
2023-01-25T16:33:16.629Z,1.40
2023-01-25T16:37:19.494Z,1.30
2023-01-25T16:41:22.410Z,1.80
2023-01-25T16:45:26.767Z,1.90
2023-01-25T16:49:30.627Z,1.80
2023-01-25T16:53:33.630Z,2.00
2023-01-25T16:57:36.488Z,2.00
2023-01-25T17:01:41.493Z,2.10
2023-01-25T17:05:44.694Z,2.00
2023-01-25T17:09:47.411Z,2.10
2023-01-25T17:13:50.699Z,2.00
2023-01-25T17:17:54.863Z,2.00
2023-01-25T17:21:59.047Z,2.30
2023-01-25T17:26:05.073Z,2.00
2023-01-25T17:30:09.778Z,1.80
2023-01-25T17:34:16.227Z,1.70
2023-01-25T17:38:20.219Z,2.00
2023-01-25T17:42:23.041Z,2.10
2023-01-25T17:46:29.762Z,1.90
2023-01-25T17:50:34.160Z,2.10
2023-01-25T17:54:37.280Z,1.90
2023-01-25T17:58:41.396Z,2.00
2023-01-25T18:02:46.167Z,1.90
2023-01-25T18:06:52.291Z,1.90
2023-01-25T18:10:59.183Z,1.70
2023-01-25T18:15:01.808Z,1.70
2023-01-25T18:19:04.897Z,1.80
2023-01-25T18:23:09.067Z,1.90
2023-01-25T18:27:19.656Z,1.80
2023-01-25T18:31:22.867Z,1.90
2023-01-25T18:35:25.885Z,1.70
2023-01-25T18:39:30.151Z,1.80
2023-01-25T18:43:33.477Z,1.90
2023-01-25T18:47:36.598Z,1.90
2023-01-25T18:52:01.934Z,2.00
2023-01-25T18:56:07.842Z,1.90
2023-01-25T19:00:14.837Z,2.00
2023-01-25T19:04:17.664Z,2.00
2023-01-25T19:08:20.463Z,1.90
2023-01-25T19:12:24.661Z,2.00
2023-01-25T19:16:27.492Z,1.80
2023-01-25T19:20:30.325Z,1.50
2023-01-25T19:24:33.153Z,1.40
2023-01-25T19:28:38.883Z,1.50
2023-01-25T19:32:41.791Z,1.40
2023-01-25T19:36:49.811Z,1.50
2023-01-25T19:40:52.818Z,1.60
2023-01-25T19:44:57.045Z,1.80
2023-01-25T19:49:01.968Z,1.80
2023-01-25T19:53:04.864Z,1.80
2023-01-25T19:57:07.675Z,1.60
2023-01-25T20:01:13.366Z,1.70
2023-01-25T20:05:16.339Z,1.70
2023-01-25T20:09:20.411Z,1.60
2023-01-25T20:13:23.404Z,1.50
2023-01-25T20:17:27.785Z,1.60
2023-01-25T20:21:33.471Z,1.70
2023-01-25T20:25:36.297Z,1.90
2023-01-25T20:29:39.846Z,1.90
2023-01-25T20:33:44.056Z,1.90
2023-01-25T20:37:49.203Z,2.00
2023-01-25T20:41:53.553Z,1.90
2023-01-25T20:45:56.888Z,1.90
2023-01-25T20:50:01.222Z,2.10
2023-01-25T20:54:04.112Z,2.20
2023-01-25T20:58:07.648Z,2.30
2023-01-25T21:02:11.631Z,2.40
2023-01-25T21:06:16.036Z,2.50
2023-01-25T21:10:19.218Z,2.50
2023-01-25T21:14:22.039Z,2.40
2023-01-25T21:18:24.972Z,2.40
2023-01-25T21:22:30.223Z,2.40
2023-01-25T21:26:34.413Z,2.20
2023-01-25T21:30:37.201Z,1.90
2023-01-25T21:34:40.000Z,1.70
2023-01-25T21:38:46.026Z,1.90
2023-01-25T21:42:48.780Z,1.90
2023-01-25T21:47:19.773Z,2.10
2023-01-25T21:51:33.073Z,2.30
2023-01-25T21:55:37.169Z,2.30
2023-01-25T21:59:40.775Z,2.30
2023-01-25T22:03:47.329Z,2.30
2023-01-25T22:07:50.112Z,2.40
2023-01-25T22:11:54.355Z,2.40
2023-01-25T22:15:59.932Z,2.40
2023-01-25T22:20:02.713Z,2.40
2023-01-25T22:24:06.634Z,2.40
2023-01-25T22:28:15.535Z,2.50
2023-01-25T22:32:18.351Z,2.40
2023-01-25T22:36:23.201Z,2.40
2023-01-25T22:40:26.143Z,2.60
2023-01-25T22:44:30.289Z,2.50
2023-01-25T22:48:33.752Z,2.50
2023-01-25T22:52:36.794Z,2.50
2023-01-25T22:56:40.259Z,2.50
2023-01-25T23:00:44.443Z,2.50
2023-01-25T23:04:47.303Z,2.40
2023-01-25T23:08:50.408Z,2.40
2023-01-25T23:12:53.905Z,2.40
2023-01-25T23:17:18.792Z,2.50
2023-01-25T23:21:23.896Z,2.60
2023-01-25T23:25:27.746Z,2.50
2023-01-25T23:29:30.539Z,2.40
2023-01-25T23:33:34.647Z,2.40
2023-01-25T23:37:37.408Z,2.30
2023-01-25T23:41:40.905Z,2.10
2023-01-25T23:45:44.527Z,2.10
2023-01-25T23:49:48.699Z,2.10
2023-01-25T23:53:53.410Z,1.90
2023-01-25T23:57:56.223Z,2.10
